Terminal Aerodrome Forecast
Issued by NWS

Current Version | Previous Version | Graphics & Text | Print | Product List | Glossary On
Versions: 1 2 3 4 5 6 7 8 9 10 11 12 13 14
000
FTUS41 KRNK 261724
TAFLWB
TAF
KLWB 261724Z 2618/2718 VRB03KT P6SM FEW060
     FM270800 00000KT 5SM BR BKN004
      TEMPO 2708/2712 2SM BR
     FM271400 17008G16KT P6SM BKN035=

USA.gov is the U.S. government's official web portal to all federal, state and local government web resources and services.